sensor_id;sensor_type;location;lat;lon;timestamp;temperature;humidity
52615;DHT22;38508;53.158;6.614;2022-08-03T00:01:20;21.70;99.90
52615;DHT22;38508;53.158;6.614;2022-08-03T00:03:46;21.70;99.90
52615;DHT22;38508;53.158;6.614;2022-08-03T00:06:12;21.70;99.90
52615;DHT22;38508;53.158;6.614;2022-08-03T00:08:37;21.60;99.90
52615;DHT22;38508;53.158;6.614;2022-08-03T00:11:03;21.60;99.90
52615;DHT22;38508;53.158;6.614;2022-08-03T00:13:31;21.60;99.90
52615;DHT22;38508;53.158;6.614;2022-08-03T00:15:57;21.60;99.90
52615;DHT22;38508;53.158;6.614;2022-08-03T00:18:23;21.60;99.90
52615;DHT22;38508;53.158;6.614;2022-08-03T00:20:49;21.60;99.90
52615;DHT22;38508;53.158;6.614;2022-08-03T00:23:14;21.70;99.90
52615;DHT22;38508;53.158;6.614;2022-08-03T00:25:40;21.70;99.90
52615;DHT22;38508;53.158;6.614;2022-08-03T00:28:06;21.70;99.90
52615;DHT22;38508;53.158;6.614;2022-08-03T00:30:32;21.60;99.90
52615;DHT22;38508;53.158;6.614;2022-08-03T00:32:58;21.60;99.90
52615;DHT22;38508;53.158;6.614;2022-08-03T00:35:24;21.50;99.90
52615;DHT22;38508;53.158;6.614;2022-08-03T00:37:50;21.40;99.90
52615;DHT22;38508;53.158;6.614;2022-08-03T00:40:17;21.40;99.90
52615;DHT22;38508;53.158;6.614;2022-08-03T00:42:53;21.40;99.90
52615;DHT22;38508;53.158;6.614;2022-08-03T00:45:20;21.40;99.90
52615;DHT22;38508;53.158;6.614;2022-08-03T00:47:46;21.30;99.90
52615;DHT22;38508;53.158;6.614;2022-08-03T00:50:12;21.20;99.90
52615;DHT22;38508;53.158;6.614;2022-08-03T00:52:38;21.20;99.90
52615;DHT22;38508;53.158;6.614;2022-08-03T00:55:04;21.20;99.90
52615;DHT22;38508;53.158;6.614;2022-08-03T00:57:31;21.20;99.90
52615;DHT22;38508;53.158;6.614;2022-08-03T00:59:58;21.20;99.90
52615;DHT22;38508;53.158;6.614;2022-08-03T01:02:28;21.20;99.90
52615;DHT22;38508;53.158;6.614;2022-08-03T01:04:54;21.30;99.90
52615;DHT22;38508;53.158;6.614;2022-08-03T01:07:36;21.30;99.90
52615;DHT22;38508;53.158;6.614;2022-08-03T01:10:33;21.30;99.90
52615;DHT22;38508;53.158;6.614;2022-08-03T01:13:39;21.40;99.90
52615;DHT22;38508;53.158;6.614;2022-08-03T01:16:14;21.40;99.90
52615;DHT22;38508;53.158;6.614;2022-08-03T01:19:08;21.40;99.90
52615;DHT22;38508;53.158;6.614;2022-08-03T01:27:06;21.40;99.90
52615;DHT22;38508;53.158;6.614;2022-08-03T01:32:33;21.50;99.90
52615;DHT22;38508;53.158;6.614;2022-08-03T01:35:11;21.50;99.90
52615;DHT22;38508;53.158;6.614;2022-08-03T01:37:44;21.50;99.90
52615;DHT22;38508;53.158;6.614;2022-08-03T01:40:13;21.50;99.90
52615;DHT22;38508;53.158;6.614;2022-08-03T01:42:41;21.40;99.90
52615;DHT22;38508;53.158;6.614;2022-08-03T01:45:09;21.40;99.90
52615;DHT22;38508;53.158;6.614;2022-08-03T01:47:37;21.40;99.90
52615;DHT22;38508;53.158;6.614;2022-08-03T01:50:04;21.30;99.90
52615;DHT22;38508;53.158;6.614;2022-08-03T01:52:31;21.30;99.90
52615;DHT22;38508;53.158;6.614;2022-08-03T01:54:58;21.30;99.90
52615;DHT22;38508;53.158;6.614;2022-08-03T01:57:27;21.30;99.90
52615;DHT22;38508;53.158;6.614;2022-08-03T01:59:55;21.30;99.90
52615;DHT22;38508;53.158;6.614;2022-08-03T02:02:21;21.30;99.90
52615;DHT22;38508;53.158;6.614;2022-08-03T02:04:49;21.30;99.90
52615;DHT22;38508;53.158;6.614;2022-08-03T02:07:17;21.30;99.90
52615;DHT22;38508;53.158;6.614;2022-08-03T02:09:47;21.30;99.90
52615;DHT22;38508;53.158;6.614;2022-08-03T02:12:15;21.30;99.90
52615;DHT22;38508;53.158;6.614;2022-08-03T02:14:42;21.30;99.90
52615;DHT22;38508;53.158;6.614;2022-08-03T02:17:09;21.30;99.90
52615;DHT22;38508;53.158;6.614;2022-08-03T02:19:36;21.30;99.90
52615;DHT22;38508;53.158;6.614;2022-08-03T02:22:04;21.30;99.90
52615;DHT22;38508;53.158;6.614;2022-08-03T02:24:30;21.20;99.90
52615;DHT22;38508;53.158;6.614;2022-08-03T02:26:56;21.20;99.90
52615;DHT22;38508;53.158;6.614;2022-08-03T02:29:25;21.10;99.90
52615;DHT22;38508;53.158;6.614;2022-08-03T02:31:51;21.10;99.90
52615;DHT22;38508;53.158;6.614;2022-08-03T02:34:20;21.10;99.90
52615;DHT22;38508;53.158;6.614;2022-08-03T02:36:49;21.10;99.90
52615;DHT22;38508;53.158;6.614;2022-08-03T02:39:19;21.00;99.90
52615;DHT22;38508;53.158;6.614;2022-08-03T02:41:48;21.00;99.90
52615;DHT22;38508;53.158;6.614;2022-08-03T02:44:17;21.00;99.90
52615;DHT22;38508;53.158;6.614;2022-08-03T02:46:45;20.90;99.90
52615;DHT22;38508;53.158;6.614;2022-08-03T02:49:15;20.90;99.90
52615;DHT22;38508;53.158;6.614;2022-08-03T02:51:44;20.80;99.90
52615;DHT22;38508;53.158;6.614;2022-08-03T02:54:15;20.90;99.90
52615;DHT22;38508;53.158;6.614;2022-08-03T02:56:43;20.80;99.90
52615;DHT22;38508;53.158;6.614;2022-08-03T02:59:11;20.80;99.90
52615;DHT22;38508;53.158;6.614;2022-08-03T03:01:37;20.90;99.90
52615;DHT22;38508;53.158;6.614;2022-08-03T03:04:04;20.90;99.90
52615;DHT22;38508;53.158;6.614;2022-08-03T03:06:30;20.90;99.90
52615;DHT22;38508;53.158;6.614;2022-08-03T03:08:57;21.00;99.90
52615;DHT22;38508;53.158;6.614;2022-08-03T03:11:24;21.00;99.90
52615;DHT22;38508;53.158;6.614;2022-08-03T03:13:51;21.00;99.90
52615;DHT22;38508;53.158;6.614;2022-08-03T03:16:17;21.00;99.90
52615;DHT22;38508;53.158;6.614;2022-08-03T03:18:44;21.00;99.90
52615;DHT22;38508;53.158;6.614;2022-08-03T03:21:12;21.00;99.90
52615;DHT22;38508;53.158;6.614;2022-08-03T03:23:40;20.90;99.90
52615;DHT22;38508;53.158;6.614;2022-08-03T03:26:06;20.90;99.90
52615;DHT22;38508;53.158;6.614;2022-08-03T03:28:33;20.90;99.90
52615;DHT22;38508;53.158;6.614;2022-08-03T03:31:02;20.90;99.90
52615;DHT22;38508;53.158;6.614;2022-08-03T03:33:28;20.90;99.90
52615;DHT22;38508;53.158;6.614;2022-08-03T03:35:54;20.90;99.90
52615;DHT22;38508;53.158;6.614;2022-08-03T03:38:22;20.80;99.90
52615;DHT22;38508;53.158;6.614;2022-08-03T03:40:48;20.90;99.90
52615;DHT22;38508;53.158;6.614;2022-08-03T03:43:13;20.80;99.90
52615;DHT22;38508;53.158;6.614;2022-08-03T03:45:40;20.80;99.90
52615;DHT22;38508;53.158;6.614;2022-08-03T03:48:07;20.90;99.90
52615;DHT22;38508;53.158;6.614;2022-08-03T03:50:34;20.90;99.90
52615;DHT22;38508;53.158;6.614;2022-08-03T03:53:03;20.90;99.90
52615;DHT22;38508;53.158;6.614;2022-08-03T03:55:29;20.90;99.90
52615;DHT22;38508;53.158;6.614;2022-08-03T03:57:55;20.80;99.90
52615;DHT22;38508;53.158;6.614;2022-08-03T04:00:22;20.80;99.90
52615;DHT22;38508;53.158;6.614;2022-08-03T04:02:49;20.80;99.90
52615;DHT22;38508;53.158;6.614;2022-08-03T04:05:14;20.80;99.90
52615;DHT22;38508;53.158;6.614;2022-08-03T04:08:07;20.90;99.90
52615;DHT22;38508;53.158;6.614;2022-08-03T04:11:33;20.80;99.90
52615;DHT22;38508;53.158;6.614;2022-08-03T04:14:33;20.90;99.90
52615;DHT22;38508;53.158;6.614;2022-08-03T04:17:05;20.80;99.90
52615;DHT22;38508;53.158;6.614;2022-08-03T04:19:36;20.80;99.90
52615;DHT22;38508;53.158;6.614;2022-08-03T04:22:09;20.80;99.90
52615;DHT22;38508;53.158;6.614;2022-08-03T04:24:42;20.80;99.90
52615;DHT22;38508;53.158;6.614;2022-08-03T04:27:11;20.80;99.90
52615;DHT22;38508;53.158;6.614;2022-08-03T04:29:40;20.80;99.90
52615;DHT22;38508;53.158;6.614;2022-08-03T04:32:08;20.80;99.90
52615;DHT22;38508;53.158;6.614;2022-08-03T04:34:34;20.80;99.90
52615;DHT22;38508;53.158;6.614;2022-08-03T04:37:02;20.80;99.90
52615;DHT22;38508;53.158;6.614;2022-08-03T04:39:30;20.80;99.90
52615;DHT22;38508;53.158;6.614;2022-08-03T04:42:00;20.90;99.90
52615;DHT22;38508;53.158;6.614;2022-08-03T04:44:28;21.00;99.90
52615;DHT22;38508;53.158;6.614;2022-08-03T04:46:57;21.00;99.90
52615;DHT22;38508;53.158;6.614;2022-08-03T04:49:23;21.10;99.90
52615;DHT22;38508;53.158;6.614;2022-08-03T04:51:49;21.10;99.90
52615;DHT22;38508;53.158;6.614;2022-08-03T04:54:15;21.10;99.90
52615;DHT22;38508;53.158;6.614;2022-08-03T04:56:42;21.10;99.90
52615;DHT22;38508;53.158;6.614;2022-08-03T04:59:08;21.20;99.90
52615;DHT22;38508;53.158;6.614;2022-08-03T05:01:35;21.20;99.90
52615;DHT22;38508;53.158;6.614;2022-08-03T05:04:00;21.20;99.90
52615;DHT22;38508;53.158;6.614;2022-08-03T05:06:27;21.30;99.90
52615;DHT22;38508;53.158;6.614;2022-08-03T05:08:52;21.30;99.90
52615;DHT22;38508;53.158;6.614;2022-08-03T05:11:18;21.20;99.90
52615;DHT22;38508;53.158;6.614;2022-08-03T05:13:44;21.30;99.90
52615;DHT22;38508;53.158;6.614;2022-08-03T05:16:10;21.30;99.90
52615;DHT22;38508;53.158;6.614;2022-08-03T05:18:36;21.40;99.90
52615;DHT22;38508;53.158;6.614;2022-08-03T05:21:03;21.50;99.90
52615;DHT22;38508;53.158;6.614;2022-08-03T05:23:29;21.50;99.90
52615;DHT22;38508;53.158;6.614;2022-08-03T05:25:55;21.60;99.90
52615;DHT22;38508;53.158;6.614;2022-08-03T05:28:21;21.60;99.90
52615;DHT22;38508;53.158;6.614;2022-08-03T05:30:47;21.70;99.90
52615;DHT22;38508;53.158;6.614;2022-08-03T05:33:13;21.70;99.90
52615;DHT22;38508;53.158;6.614;2022-08-03T05:35:39;21.80;99.90
52615;DHT22;38508;53.158;6.614;2022-08-03T05:38:05;21.80;99.90
52615;DHT22;38508;53.158;6.614;2022-08-03T05:40:31;21.90;99.90
52615;DHT22;38508;53.158;6.614;2022-08-03T05:42:57;21.80;99.90
52615;DHT22;38508;53.158;6.614;2022-08-03T05:45:23;21.90;99.90
52615;DHT22;38508;53.158;6.614;2022-08-03T05:47:50;21.90;99.90
52615;DHT22;38508;53.158;6.614;2022-08-03T05:50:16;22.00;99.90
52615;DHT22;38508;53.158;6.614;2022-08-03T05:52:43;22.10;99.90
52615;DHT22;38508;53.158;6.614;2022-08-03T05:55:10;21.90;99.90
52615;DHT22;38508;53.158;6.614;2022-08-03T05:57:37;22.00;99.90
52615;DHT22;38508;53.158;6.614;2022-08-03T06:00:07;22.10;99.90
52615;DHT22;38508;53.158;6.614;2022-08-03T06:02:33;22.30;99.90
52615;DHT22;38508;53.158;6.614;2022-08-03T06:04:59;22.10;99.90
52615;DHT22;38508;53.158;6.614;2022-08-03T06:07:25;22.20;99.90
52615;DHT22;38508;53.158;6.614;2022-08-03T06:09:51;22.30;99.90
52615;DHT22;38508;53.158;6.614;2022-08-03T06:12:16;22.30;99.90
52615;DHT22;38508;53.158;6.614;2022-08-03T06:14:42;22.30;99.90
52615;DHT22;38508;53.158;6.614;2022-08-03T06:17:08;22.30;99.90
52615;DHT22;38508;53.158;6.614;2022-08-03T06:19:33;22.30;99.90
52615;DHT22;38508;53.158;6.614;2022-08-03T06:21:59;22.40;99.90
52615;DHT22;38508;53.158;6.614;2022-08-03T06:24:25;22.40;99.90
52615;DHT22;38508;53.158;6.614;2022-08-03T06:26:50;22.40;99.90
52615;DHT22;38508;53.158;6.614;2022-08-03T06:29:16;22.60;99.90
52615;DHT22;38508;53.158;6.614;2022-08-03T06:31:42;22.60;99.90
52615;DHT22;38508;53.158;6.614;2022-08-03T06:34:07;22.60;99.90
52615;DHT22;38508;53.158;6.614;2022-08-03T06:36:33;22.60;99.90
52615;DHT22;38508;53.158;6.614;2022-08-03T06:38:59;22.80;99.90
52615;DHT22;38508;53.158;6.614;2022-08-03T06:41:26;23.00;99.90
52615;DHT22;38508;53.158;6.614;2022-08-03T06:43:53;23.00;99.90
52615;DHT22;38508;53.158;6.614;2022-08-03T06:46:19;23.00;99.90
52615;DHT22;38508;53.158;6.614;2022-08-03T06:48:44;22.90;99.90
52615;DHT22;38508;53.158;6.614;2022-08-03T06:51:10;22.90;99.90
52615;DHT22;38508;53.158;6.614;2022-08-03T06:53:36;22.90;99.90
52615;DHT22;38508;53.158;6.614;2022-08-03T06:56:04;22.80;99.90
52615;DHT22;38508;53.158;6.614;2022-08-03T06:58:29;22.90;99.90
52615;DHT22;38508;53.158;6.614;2022-08-03T07:00:55;23.10;99.90
52615;DHT22;38508;53.158;6.614;2022-08-03T07:03:21;23.10;99.90
52615;DHT22;38508;53.158;6.614;2022-08-03T07:05:46;23.40;99.90
52615;DHT22;38508;53.158;6.614;2022-08-03T07:08:15;23.40;99.90
52615;DHT22;38508;53.158;6.614;2022-08-03T07:10:42;23.40;99.90
52615;DHT22;38508;53.158;6.614;2022-08-03T07:13:07;23.40;99.90
52615;DHT22;38508;53.158;6.614;2022-08-03T07:15:34;23.50;99.90
52615;DHT22;38508;53.158;6.614;2022-08-03T07:17:59;23.60;99.90
52615;DHT22;38508;53.158;6.614;2022-08-03T07:20:25;23.70;99.90
52615;DHT22;38508;53.158;6.614;2022-08-03T07:22:51;23.90;99.90
52615;DHT22;38508;53.158;6.614;2022-08-03T07:25:16;23.90;99.90
52615;DHT22;38508;53.158;6.614;2022-08-03T07:27:43;24.00;99.90
52615;DHT22;38508;53.158;6.614;2022-08-03T07:30:10;24.00;99.90
52615;DHT22;38508;53.158;6.614;2022-08-03T07:32:36;24.20;99.90
52615;DHT22;38508;53.158;6.614;2022-08-03T07:35:02;24.20;99.90
52615;DHT22;38508;53.158;6.614;2022-08-03T07:37:29;24.20;99.90
52615;DHT22;38508;53.158;6.614;2022-08-03T07:39:55;24.30;99.90
52615;DHT22;38508;53.158;6.614;2022-08-03T07:42:21;24.30;99.90
52615;DHT22;38508;53.158;6.614;2022-08-03T07:44:48;24.40;99.90
52615;DHT22;38508;53.158;6.614;2022-08-03T07:47:18;24.30;99.90
52615;DHT22;38508;53.158;6.614;2022-08-03T07:49:44;24.30;99.90
52615;DHT22;38508;53.158;6.614;2022-08-03T07:52:09;24.40;99.90
52615;DHT22;38508;53.158;6.614;2022-08-03T07:54:54;24.50;99.90
52615;DHT22;38508;53.158;6.614;2022-08-03T07:57:19;24.60;99.90
52615;DHT22;38508;53.158;6.614;2022-08-03T07:59:46;24.50;99.90
52615;DHT22;38508;53.158;6.614;2022-08-03T08:02:12;24.40;99.90
52615;DHT22;38508;53.158;6.614;2022-08-03T08:04:38;24.50;99.90
52615;DHT22;38508;53.158;6.614;2022-08-03T08:07:04;24.60;99.90
52615;DHT22;38508;53.158;6.614;2022-08-03T08:09:30;24.80;99.90
52615;DHT22;38508;53.158;6.614;2022-08-03T08:11:55;25.00;99.90
52615;DHT22;38508;53.158;6.614;2022-08-03T08:14:21;24.70;99.90
52615;DHT22;38508;53.158;6.614;2022-08-03T08:16:47;24.80;99.90
52615;DHT22;38508;53.158;6.614;2022-08-03T08:19:14;24.90;99.90
52615;DHT22;38508;53.158;6.614;2022-08-03T08:21:42;25.10;99.90
52615;DHT22;38508;53.158;6.614;2022-08-03T08:24:07;25.10;99.90
52615;DHT22;38508;53.158;6.614;2022-08-03T08:26:33;25.00;99.90
52615;DHT22;38508;53.158;6.614;2022-08-03T08:28:59;25.00;99.90
52615;DHT22;38508;53.158;6.614;2022-08-03T08:31:25;25.00;99.90
52615;DHT22;38508;53.158;6.614;2022-08-03T08:33:50;25.10;99.90
52615;DHT22;38508;53.158;6.614;2022-08-03T08:36:16;25.20;99.90
52615;DHT22;38508;53.158;6.614;2022-08-03T08:38:42;25.50;99.90
52615;DHT22;38508;53.158;6.614;2022-08-03T08:41:10;25.60;99.90
52615;DHT22;38508;53.158;6.614;2022-08-03T08:43:36;25.80;99.90
52615;DHT22;38508;53.158;6.614;2022-08-03T08:46:02;25.90;99.90
52615;DHT22;38508;53.158;6.614;2022-08-03T08:48:29;25.90;99.90
52615;DHT22;38508;53.158;6.614;2022-08-03T08:50:55;25.80;99.90
52615;DHT22;38508;53.158;6.614;2022-08-03T08:53:25;25.90;99.90
52615;DHT22;38508;53.158;6.614;2022-08-03T08:55:51;25.90;99.90
52615;DHT22;38508;53.158;6.614;2022-08-03T08:58:20;26.00;99.90
52615;DHT22;38508;53.158;6.614;2022-08-03T09:00:48;26.10;99.90
52615;DHT22;38508;53.158;6.614;2022-08-03T09:03:14;26.10;99.90
52615;DHT22;38508;53.158;6.614;2022-08-03T09:05:42;26.00;99.90
52615;DHT22;38508;53.158;6.614;2022-08-03T09:08:09;26.10;99.90
52615;DHT22;38508;53.158;6.614;2022-08-03T09:10:34;26.20;99.90
52615;DHT22;38508;53.158;6.614;2022-08-03T09:13:00;26.40;99.90
52615;DHT22;38508;53.158;6.614;2022-08-03T09:15:30;26.20;99.90
52615;DHT22;38508;53.158;6.614;2022-08-03T09:17:58;26.10;99.90
52615;DHT22;38508;53.158;6.614;2022-08-03T09:20:28;26.10;99.90
52615;DHT22;38508;53.158;6.614;2022-08-03T09:23:05;26.10;99.90
52615;DHT22;38508;53.158;6.614;2022-08-03T09:25:37;26.20;99.90
52615;DHT22;38508;53.158;6.614;2022-08-03T09:28:12;26.30;99.90
52615;DHT22;38508;53.158;6.614;2022-08-03T09:30:40;26.40;99.90
52615;DHT22;38508;53.158;6.614;2022-08-03T09:33:11;26.50;99.90
52615;DHT22;38508;53.158;6.614;2022-08-03T09:35:45;26.70;99.90
52615;DHT22;38508;53.158;6.614;2022-08-03T09:38:15;26.60;99.90
52615;DHT22;38508;53.158;6.614;2022-08-03T09:40:42;26.80;99.90
52615;DHT22;38508;53.158;6.614;2022-08-03T09:43:08;26.80;99.90
52615;DHT22;38508;53.158;6.614;2022-08-03T09:45:35;27.00;99.90
52615;DHT22;38508;53.158;6.614;2022-08-03T09:48:24;27.20;99.90
52615;DHT22;38508;53.158;6.614;2022-08-03T09:50:51;27.50;99.90
52615;DHT22;38508;53.158;6.614;2022-08-03T09:53:17;27.60;99.90
52615;DHT22;38508;53.158;6.614;2022-08-03T09:55:57;27.40;99.90
52615;DHT22;38508;53.158;6.614;2022-08-03T09:58:26;27.50;99.90
52615;DHT22;38508;53.158;6.614;2022-08-03T10:01:00;27.40;99.90
52615;DHT22;38508;53.158;6.614;2022-08-03T10:03:29;27.00;99.90
52615;DHT22;38508;53.158;6.614;2022-08-03T10:05:55;26.60;99.90
52615;DHT22;38508;53.158;6.614;2022-08-03T10:08:21;26.40;99.90
52615;DHT22;38508;53.158;6.614;2022-08-03T10:10:49;26.50;99.90
52615;DHT22;38508;53.158;6.614;2022-08-03T10:13:17;26.60;99.90
52615;DHT22;38508;53.158;6.614;2022-08-03T10:15:43;26.80;99.90
52615;DHT22;38508;53.158;6.614;2022-08-03T10:18:09;26.90;99.90
52615;DHT22;38508;53.158;6.614;2022-08-03T10:21:06;27.00;99.90
52615;DHT22;38508;53.158;6.614;2022-08-03T10:23:37;27.10;99.90
52615;DHT22;38508;53.158;6.614;2022-08-03T10:26:06;27.40;99.90
52615;DHT22;38508;53.158;6.614;2022-08-03T10:28:39;27.90;99.90
52615;DHT22;38508;53.158;6.614;2022-08-03T10:31:07;28.20;99.90
52615;DHT22;38508;53.158;6.614;2022-08-03T10:33:37;28.60;99.90
52615;DHT22;38508;53.158;6.614;2022-08-03T10:36:06;28.20;99.90
52615;DHT22;38508;53.158;6.614;2022-08-03T10:38:37;28.30;99.90
52615;DHT22;38508;53.158;6.614;2022-08-03T10:41:04;28.70;99.90
52615;DHT22;38508;53.158;6.614;2022-08-03T10:43:51;28.90;99.90
52615;DHT22;38508;53.158;6.614;2022-08-03T10:46:18;29.10;99.90
52615;DHT22;38508;53.158;6.614;2022-08-03T10:48:46;29.30;99.90
52615;DHT22;38508;53.158;6.614;2022-08-03T10:51:13;29.50;99.90
52615;DHT22;38508;53.158;6.614;2022-08-03T10:53:40;29.70;99.90
52615;DHT22;38508;53.158;6.614;2022-08-03T10:59:15;30.10;99.90
52615;DHT22;38508;53.158;6.614;2022-08-03T11:01:55;30.20;99.90
52615;DHT22;38508;53.158;6.614;2022-08-03T11:04:22;30.40;99.90
52615;DHT22;38508;53.158;6.614;2022-08-03T11:07:18;30.60;99.90
52615;DHT22;38508;53.158;6.614;2022-08-03T11:09:52;30.80;99.90
52615;DHT22;38508;53.158;6.614;2022-08-03T11:12:31;30.80;99.90
52615;DHT22;38508;53.158;6.614;2022-08-03T11:15:03;31.20;99.90
52615;DHT22;38508;53.158;6.614;2022-08-03T11:17:31;31.00;99.90
52615;DHT22;38508;53.158;6.614;2022-08-03T11:19:57;30.90;99.90
52615;DHT22;38508;53.158;6.614;2022-08-03T11:22:22;31.00;99.90
52615;DHT22;38508;53.158;6.614;2022-08-03T11:27:31;31.30;99.90
52615;DHT22;38508;53.158;6.614;2022-08-03T11:30:11;31.30;99.90
52615;DHT22;38508;53.158;6.614;2022-08-03T11:32:51;31.40;99.90
52615;DHT22;38508;53.158;6.614;2022-08-03T11:36:01;31.10;99.90
52615;DHT22;38508;53.158;6.614;2022-08-03T11:38:27;31.10;99.90
52615;DHT22;38508;53.158;6.614;2022-08-03T11:40:53;30.70;99.90
52615;DHT22;38508;53.158;6.614;2022-08-03T11:46:00;30.70;99.90
52615;DHT22;38508;53.158;6.614;2022-08-03T11:48:40;30.90;99.90
52615;DHT22;38508;53.158;6.614;2022-08-03T11:51:29;31.10;99.90
52615;DHT22;38508;53.158;6.614;2022-08-03T11:53:57;31.10;99.90
52615;DHT22;38508;53.158;6.614;2022-08-03T11:56:23;31.20;99.90
52615;DHT22;38508;53.158;6.614;2022-08-03T11:58:51;31.20;99.90
52615;DHT22;38508;53.158;6.614;2022-08-03T12:01:19;31.60;99.90
52615;DHT22;38508;53.158;6.614;2022-08-03T12:03:45;31.70;99.90
52615;DHT22;38508;53.158;6.614;2022-08-03T12:06:13;31.40;99.90
52615;DHT22;38508;53.158;6.614;2022-08-03T12:08:39;31.70;99.90
52615;DHT22;38508;53.158;6.614;2022-08-03T12:11:07;31.80;99.90
52615;DHT22;38508;53.158;6.614;2022-08-03T12:13:44;32.20;99.90
52615;DHT22;38508;53.158;6.614;2022-08-03T12:16:22;32.50;99.90
52615;DHT22;38508;53.158;6.614;2022-08-03T12:19:02;32.80;99.90
52615;DHT22;38508;53.158;6.614;2022-08-03T12:21:29;32.40;99.90
52615;DHT22;38508;53.158;6.614;2022-08-03T12:23:57;32.20;99.90
52615;DHT22;38508;53.158;6.614;2022-08-03T12:26:25;31.80;99.90
52615;DHT22;38508;53.158;6.614;2022-08-03T12:28:51;31.70;99.90
52615;DHT22;38508;53.158;6.614;2022-08-03T12:31:16;32.30;99.90
52615;DHT22;38508;53.158;6.614;2022-08-03T12:34:01;32.70;99.90
52615;DHT22;38508;53.158;6.614;2022-08-03T12:36:29;33.10;99.90
52615;DHT22;38508;53.158;6.614;2022-08-03T12:39:01;33.50;99.90
52615;DHT22;38508;53.158;6.614;2022-08-03T12:41:30;32.80;99.90
52615;DHT22;38508;53.158;6.614;2022-08-03T12:43:56;32.00;99.90
52615;DHT22;38508;53.158;6.614;2022-08-03T12:46:22;32.50;99.90
52615;DHT22;38508;53.158;6.614;2022-08-03T12:48:58;32.70;99.90
52615;DHT22;38508;53.158;6.614;2022-08-03T12:51:25;33.00;99.90
52615;DHT22;38508;53.158;6.614;2022-08-03T12:53:53;32.90;99.90
52615;DHT22;38508;53.158;6.614;2022-08-03T12:56:19;32.40;99.90
52615;DHT22;38508;53.158;6.614;2022-08-03T12:58:45;32.50;99.90
52615;DHT22;38508;53.158;6.614;2022-08-03T13:01:12;33.00;99.90
52615;DHT22;38508;53.158;6.614;2022-08-03T13:03:43;33.20;99.90
52615;DHT22;38508;53.158;6.614;2022-08-03T13:06:11;33.30;99.90
52615;DHT22;38508;53.158;6.614;2022-08-03T13:08:38;32.90;99.90
52615;DHT22;38508;53.158;6.614;2022-08-03T13:11:23;32.90;99.90
52615;DHT22;38508;53.158;6.614;2022-08-03T13:13:50;32.70;99.90
52615;DHT22;38508;53.158;6.614;2022-08-03T13:16:15;32.70;99.90
52615;DHT22;38508;53.158;6.614;2022-08-03T13:18:41;33.20;99.90
52615;DHT22;38508;53.158;6.614;2022-08-03T13:21:07;33.60;99.90
52615;DHT22;38508;53.158;6.614;2022-08-03T13:23:33;33.80;99.90
52615;DHT22;38508;53.158;6.614;2022-08-03T13:25:59;34.00;99.90
52615;DHT22;38508;53.158;6.614;2022-08-03T13:28:24;34.10;99.90
52615;DHT22;38508;53.158;6.614;2022-08-03T13:30:50;33.80;99.90
52615;DHT22;38508;53.158;6.614;2022-08-03T13:33:16;33.40;99.80
52615;DHT22;38508;53.158;6.614;2022-08-03T13:35:42;33.40;99.90
52615;DHT22;38508;53.158;6.614;2022-08-03T13:38:07;33.30;99.50
52615;DHT22;38508;53.158;6.614;2022-08-03T13:40:33;32.50;99.50
52615;DHT22;38508;53.158;6.614;2022-08-03T13:42:59;32.20;99.90
52615;DHT22;38508;53.158;6.614;2022-08-03T13:45:24;32.20;99.90
52615;DHT22;38508;53.158;6.614;2022-08-03T13:47:52;32.60;99.90
52615;DHT22;38508;53.158;6.614;2022-08-03T13:50:18;32.80;99.70
52615;DHT22;38508;53.158;6.614;2022-08-03T13:52:43;32.20;99.90
52615;DHT22;38508;53.158;6.614;2022-08-03T13:55:10;32.20;99.70
52615;DHT22;38508;53.158;6.614;2022-08-03T13:57:37;31.80;99.90
52615;DHT22;38508;53.158;6.614;2022-08-03T14:00:05;32.00;99.90
52615;DHT22;38508;53.158;6.614;2022-08-03T14:02:31;31.90;99.90
52615;DHT22;38508;53.158;6.614;2022-08-03T14:04:56;32.00;99.90
52615;DHT22;38508;53.158;6.614;2022-08-03T14:07:22;32.10;99.90
52615;DHT22;38508;53.158;6.614;2022-08-03T14:09:48;32.30;99.90
52615;DHT22;38508;53.158;6.614;2022-08-03T14:12:13;32.70;99.90
52615;DHT22;38508;53.158;6.614;2022-08-03T14:14:39;32.70;99.90
52615;DHT22;38508;53.158;6.614;2022-08-03T14:17:05;32.30;99.90
52615;DHT22;38508;53.158;6.614;2022-08-03T14:19:30;32.10;99.90
52615;DHT22;38508;53.158;6.614;2022-08-03T14:21:57;31.70;99.90
52615;DHT22;38508;53.158;6.614;2022-08-03T14:24:23;31.90;99.90
52615;DHT22;38508;53.158;6.614;2022-08-03T14:26:48;32.40;99.90
52615;DHT22;38508;53.158;6.614;2022-08-03T14:29:14;32.60;99.90
52615;DHT22;38508;53.158;6.614;2022-08-03T14:31:40;32.80;99.90
52615;DHT22;38508;53.158;6.614;2022-08-03T14:34:06;32.70;99.90
52615;DHT22;38508;53.158;6.614;2022-08-03T14:36:31;32.60;99.90
52615;DHT22;38508;53.158;6.614;2022-08-03T14:38:57;32.40;99.90
52615;DHT22;38508;53.158;6.614;2022-08-03T14:41:23;32.20;99.90
52615;DHT22;38508;53.158;6.614;2022-08-03T14:43:50;32.60;99.90
52615;DHT22;38508;53.158;6.614;2022-08-03T14:46:15;32.80;99.70
52615;DHT22;38508;53.158;6.614;2022-08-03T14:48:44;32.90;99.90
52615;DHT22;38508;53.158;6.614;2022-08-03T14:51:10;33.30;99.80
52615;DHT22;38508;53.158;6.614;2022-08-03T14:53:36;33.10;99.80
52615;DHT22;38508;53.158;6.614;2022-08-03T14:56:01;32.80;99.30
52615;DHT22;38508;53.158;6.614;2022-08-03T14:58:27;32.30;99.90
52615;DHT22;38508;53.158;6.614;2022-08-03T15:00:54;32.10;99.50
52615;DHT22;38508;53.158;6.614;2022-08-03T15:03:21;31.90;99.60
52615;DHT22;38508;53.158;6.614;2022-08-03T15:05:51;31.80;99.90
52615;DHT22;38508;53.158;6.614;2022-08-03T15:08:17;32.30;99.70
52615;DHT22;38508;53.158;6.614;2022-08-03T15:10:49;32.50;99.50
52615;DHT22;38508;53.158;6.614;2022-08-03T15:13:15;32.50;99.40
52615;DHT22;38508;53.158;6.614;2022-08-03T15:15:41;32.50;99.60
52615;DHT22;38508;53.158;6.614;2022-08-03T15:18:07;32.20;99.00
52615;DHT22;38508;53.158;6.614;2022-08-03T15:20:33;32.30;99.80
52615;DHT22;38508;53.158;6.614;2022-08-03T15:22:59;32.70;99.60
52615;DHT22;38508;53.158;6.614;2022-08-03T15:25:25;33.40;99.40
52615;DHT22;38508;53.158;6.614;2022-08-03T15:27:51;33.70;99.40
52615;DHT22;38508;53.158;6.614;2022-08-03T15:30:17;33.90;99.10
52615;DHT22;38508;53.158;6.614;2022-08-03T15:32:43;33.90;99.40
52615;DHT22;38508;53.158;6.614;2022-08-03T15:35:08;34.20;99.10
52615;DHT22;38508;53.158;6.614;2022-08-03T15:37:34;34.50;99.00
52615;DHT22;38508;53.158;6.614;2022-08-03T15:40:00;34.70;98.70
52615;DHT22;38508;53.158;6.614;2022-08-03T15:42:26;34.50;98.80
52615;DHT22;38508;53.158;6.614;2022-08-03T15:44:52;34.70;99.00
52615;DHT22;38508;53.158;6.614;2022-08-03T15:47:18;34.10;98.40
52615;DHT22;38508;53.158;6.614;2022-08-03T15:49:44;33.60;98.40
52615;DHT22;38508;53.158;6.614;2022-08-03T15:52:09;33.30;98.60
52615;DHT22;38508;53.158;6.614;2022-08-03T15:54:35;32.70;98.30